sensor_id;sensor_type;location;lat;lon;timestamp;pressure;altitude;pressure_sealevel;temperature;humidity
24788;BME280;12883;52.662;5.196;2023-04-08T00:01:27;102322.28;;;5.74;100.00
24788;BME280;12883;52.662;5.196;2023-04-08T00:03:52;102318.81;;;5.73;100.00
24788;BME280;12883;52.662;5.196;2023-04-08T00:06:18;102323.47;;;5.60;100.00
24788;BME280;12883;52.662;5.196;2023-04-08T00:08:43;102326.88;;;5.51;100.00
24788;BME280;12883;52.662;5.196;2023-04-08T00:11:08;102336.44;;;5.52;100.00
24788;BME280;12883;52.662;5.196;2023-04-08T00:13:34;102346.44;;;5.58;100.00
24788;BME280;12883;52.662;5.196;2023-04-08T00:15:59;102338.44;;;5.60;100.00
24788;BME280;12883;52.662;5.196;2023-04-08T00:18:25;102335.16;;;5.67;100.00
24788;BME280;12883;52.662;5.196;2023-04-08T00:20:51;102312.72;;;5.43;100.00
24788;BME280;12883;52.662;5.196;2023-04-08T00:23:16;102336.44;;;5.52;100.00
24788;BME280;12883;52.662;5.196;2023-04-08T00:25:42;102335.03;;;5.48;100.00
24788;BME280;12883;52.662;5.196;2023-04-08T00:28:07;102322.66;;;5.39;100.00
24788;BME280;12883;52.662;5.196;2023-04-08T00:30:33;102335.91;;;5.58;100.00
24788;BME280;12883;52.662;5.196;2023-04-08T00:32:58;102342.34;;;5.65;100.00
24788;BME280;12883;52.662;5.196;2023-04-08T00:35:24;102319.91;;;5.91;100.00
24788;BME280;12883;52.662;5.196;2023-04-08T00:37:49;102328.72;;;6.01;100.00
24788;BME280;12883;52.662;5.196;2023-04-08T00:40:15;102325.34;;;5.99;100.00
24788;BME280;12883;52.662;5.196;2023-04-08T00:42:40;102323.84;;;6.06;100.00
24788;BME280;12883;52.662;5.196;2023-04-08T00:45:06;102332.22;;;6.21;100.00
24788;BME280;12883;52.662;5.196;2023-04-08T00:47:32;102336.00;;;6.28;100.00
24788;BME280;12883;52.662;5.196;2023-04-08T00:49:59;102337.38;;;6.32;100.00
24788;BME280;12883;52.662;5.196;2023-04-08T00:52:25;102332.00;;;6.33;100.00
24788;BME280;12883;52.662;5.196;2023-04-08T00:54:50;102338.09;;;6.34;100.00
24788;BME280;12883;52.662;5.196;2023-04-08T00:57:15;102350.44;;;6.33;100.00
24788;BME280;12883;52.662;5.196;2023-04-08T00:59:41;102342.13;;;6.38;100.00
24788;BME280;12883;52.662;5.196;2023-04-08T01:05:06;102354.78;;;6.44;100.00
24788;BME280;12883;52.662;5.196;2023-04-08T01:07:46;102354.34;;;6.48;100.00
24788;BME280;12883;52.662;5.196;2023-04-08T01:10:20;102345.31;;;6.41;100.00
24788;BME280;12883;52.662;5.196;2023-04-08T01:12:56;102357.56;;;6.52;100.00
24788;BME280;12883;52.662;5.196;2023-04-08T01:15:23;102362.28;;;6.48;100.00
24788;BME280;12883;52.662;5.196;2023-04-08T01:17:53;102369.09;;;6.51;100.00
24788;BME280;12883;52.662;5.196;2023-04-08T01:20:19;102370.34;;;6.56;100.00
24788;BME280;12883;52.662;5.196;2023-04-08T01:25:32;102372.97;;;6.56;100.00
24788;BME280;12883;52.662;5.196;2023-04-08T01:28:06;102368.25;;;6.60;100.00
24788;BME280;12883;52.662;5.196;2023-04-08T01:30:33;102334.94;;;6.49;100.00
24788;BME280;12883;52.662;5.196;2023-04-08T01:33:01;102359.94;;;6.55;100.00
24788;BME280;12883;52.662;5.196;2023-04-08T01:35:27;102374.53;;;6.68;100.00
24788;BME280;12883;52.662;5.196;2023-04-08T01:37:53;102368.03;;;6.72;100.00
24788;BME280;12883;52.662;5.196;2023-04-08T01:40:19;102372.47;;;6.81;100.00
24788;BME280;12883;52.662;5.196;2023-04-08T01:42:47;102372.22;;;6.84;100.00
24788;BME280;12883;52.662;5.196;2023-04-08T01:45:13;102368.44;;;6.77;100.00
24788;BME280;12883;52.662;5.196;2023-04-08T01:47:39;102376.81;;;6.92;100.00
24788;BME280;12883;52.662;5.196;2023-04-08T01:50:06;102389.31;;;6.99;100.00
24788;BME280;12883;52.662;5.196;2023-04-08T01:52:34;102391.41;;;6.96;100.00
24788;BME280;12883;52.662;5.196;2023-04-08T01:55:02;102388.88;;;6.94;100.00
24788;BME280;12883;52.662;5.196;2023-04-08T01:57:31;102393.34;;;7.03;100.00
24788;BME280;12883;52.662;5.196;2023-04-08T02:00:04;102394.31;;;7.02;100.00
24788;BME280;12883;52.662;5.196;2023-04-08T02:02:31;102347.47;;;6.66;100.00
24788;BME280;12883;52.662;5.196;2023-04-08T02:04:57;102397.38;;;6.98;100.00
24788;BME280;12883;52.662;5.196;2023-04-08T02:07:22;102398.59;;;7.03;100.00
24788;BME280;12883;52.662;5.196;2023-04-08T02:09:49;102389.72;;;6.85;100.00
24788;BME280;12883;52.662;5.196;2023-04-08T02:12:14;102403.88;;;7.03;100.00
24788;BME280;12883;52.662;5.196;2023-04-08T02:14:40;102362.47;;;6.75;100.00
24788;BME280;12883;52.662;5.196;2023-04-08T02:17:11;102397.94;;;7.01;100.00
24788;BME280;12883;52.662;5.196;2023-04-08T02:19:48;102397.50;;;6.96;100.00
24788;BME280;12883;52.662;5.196;2023-04-08T02:22:22;102397.25;;;6.99;100.00
24788;BME280;12883;52.662;5.196;2023-04-08T02:24:50;102398.91;;;7.00;100.00
24788;BME280;12883;52.662;5.196;2023-04-08T02:27:16;102404.44;;;6.97;100.00
24788;BME280;12883;52.662;5.196;2023-04-08T02:29:43;102404.44;;;6.97;100.00
24788;BME280;12883;52.662;5.196;2023-04-08T02:32:09;102405.00;;;7.01;100.00
24788;BME280;12883;52.662;5.196;2023-04-08T02:34:39;102399.97;;;6.88;100.00
24788;BME280;12883;52.662;5.196;2023-04-08T02:37:04;102413.59;;;6.93;100.00
24788;BME280;12883;52.662;5.196;2023-04-08T02:39:33;102407.22;;;6.86;100.00
24788;BME280;12883;52.662;5.196;2023-04-08T02:41:58;102413.06;;;6.90;100.00
24788;BME280;12883;52.662;5.196;2023-04-08T02:44:24;102424.13;;;6.84;100.00
24788;BME280;12883;52.662;5.196;2023-04-08T02:46:49;102416.91;;;6.86;100.00
24788;BME280;12883;52.662;5.196;2023-04-08T02:49:14;102436.31;;;6.75;100.00
24788;BME280;12883;52.662;5.196;2023-04-08T02:51:40;102428.69;;;6.72;100.00
24788;BME280;12883;52.662;5.196;2023-04-08T02:54:05;102429.38;;;6.74;100.00
24788;BME280;12883;52.662;5.196;2023-04-08T02:56:30;102440.22;;;6.71;100.00
24788;BME280;12883;52.662;5.196;2023-04-08T02:58:56;102436.59;;;6.72;100.00
24788;BME280;12883;52.662;5.196;2023-04-08T03:01:21;102440.22;;;6.71;100.00
24788;BME280;12883;52.662;5.196;2023-04-08T03:03:46;102435.34;;;6.76;100.00
24788;BME280;12883;52.662;5.196;2023-04-08T03:06:12;102416.59;;;6.70;100.00
24788;BME280;12883;52.662;5.196;2023-04-08T03:08:37;102434.94;;;6.81;100.00
24788;BME280;12883;52.662;5.196;2023-04-08T03:11:02;102434.38;;;6.77;100.00
24788;BME280;12883;52.662;5.196;2023-04-08T03:13:28;102440.22;;;6.81;100.00
24788;BME280;12883;52.662;5.196;2023-04-08T03:15:54;102403.47;;;6.49;100.00
24788;BME280;12883;52.662;5.196;2023-04-08T03:18:19;102445.50;;;6.81;100.00
24788;BME280;12883;52.662;5.196;2023-04-08T03:20:45;102446.31;;;6.72;100.00
24788;BME280;12883;52.662;5.196;2023-04-08T03:23:11;102410.88;;;6.55;100.00
24788;BME280;12883;52.662;5.196;2023-04-08T03:25:36;102455.06;;;6.72;100.00
24788;BME280;12883;52.662;5.196;2023-04-08T03:28:01;102433.38;;;6.59;100.00
24788;BME280;12883;52.662;5.196;2023-04-08T03:30:27;102418.66;;;6.57;100.00
24788;BME280;12883;52.662;5.196;2023-04-08T03:32:52;102447.16;;;6.72;100.00
24788;BME280;12883;52.662;5.196;2023-04-08T03:35:18;102444.91;;;6.58;100.00
24788;BME280;12883;52.662;5.196;2023-04-08T03:37:43;102450.28;;;6.57;100.00
24788;BME280;12883;52.662;5.196;2023-04-08T03:40:09;102445.09;;;6.46;100.00
24788;BME280;12883;52.662;5.196;2023-04-08T03:42:34;102450.81;;;6.51;100.00
24788;BME280;12883;52.662;5.196;2023-04-08T03:45:00;102450.28;;;6.57;100.00
24788;BME280;12883;52.662;5.196;2023-04-08T03:47:25;102453.22;;;6.54;100.00
24788;BME280;12883;52.662;5.196;2023-04-08T03:49:54;102454.34;;;6.61;100.00
24788;BME280;12883;52.662;5.196;2023-04-08T03:52:19;102463.75;;;6.63;100.00
24788;BME280;12883;52.662;5.196;2023-04-08T03:54:44;102443.03;;;6.40;100.00
24788;BME280;12883;52.662;5.196;2023-04-08T03:57:10;102458.69;;;6.41;100.00
24788;BME280;12883;52.662;5.196;2023-04-08T03:59:36;102452.88;;;6.47;100.00
24788;BME280;12883;52.662;5.196;2023-04-08T04:02:03;102446.34;;;6.42;100.00
24788;BME280;12883;52.662;5.196;2023-04-08T04:04:29;102464.41;;;6.46;100.00
24788;BME280;12883;52.662;5.196;2023-04-08T04:06:54;102460.22;;;6.44;100.00
24788;BME280;12883;52.662;5.196;2023-04-08T04:09:20;102441.69;;;6.25;100.00
24788;BME280;12883;52.662;5.196;2023-04-08T04:11:45;102469.09;;;6.43;100.00
24788;BME280;12883;52.662;5.196;2023-04-08T04:14:11;102461.72;;;6.37;100.00
24788;BME280;12883;52.662;5.196;2023-04-08T04:16:36;102466.59;;;6.41;100.00
24788;BME280;12883;52.662;5.196;2023-04-08T04:19:01;102467.31;;;6.43;100.00
24788;BME280;12883;52.662;5.196;2023-04-08T04:21:27;102475.03;;;6.35;100.00
24788;BME280;12883;52.662;5.196;2023-04-08T04:23:52;102464.34;;;6.37;100.00
24788;BME280;12883;52.662;5.196;2023-04-08T04:26:17;102474.31;;;6.33;100.00
24788;BME280;12883;52.662;5.196;2023-04-08T04:28:43;102463.09;;;6.31;100.00
24788;BME280;12883;52.662;5.196;2023-04-08T04:31:22;102433.94;;;6.03;100.00
24788;BME280;12883;52.662;5.196;2023-04-08T04:33:50;102474.59;;;6.30;100.00
24788;BME280;12883;52.662;5.196;2023-04-08T04:36:16;102452.44;;;6.12;100.00
24788;BME280;12883;52.662;5.196;2023-04-08T04:38:42;102485.31;;;6.38;100.00
24788;BME280;12883;52.662;5.196;2023-04-08T04:41:08;102479.47;;;6.35;100.00
24788;BME280;12883;52.662;5.196;2023-04-08T04:43:33;102481.41;;;6.33;100.00
24788;BME280;12883;52.662;5.196;2023-04-08T04:45:59;102487.97;;;6.18;100.00
24788;BME280;12883;52.662;5.196;2023-04-08T04:48:24;102486.00;;;6.10;100.00
24788;BME280;12883;52.662;5.196;2023-04-08T04:50:57;102499.53;;;6.26;100.00
24788;BME280;12883;52.662;5.196;2023-04-08T04:53:23;102487.28;;;6.16;100.00
24788;BME280;12883;52.662;5.196;2023-04-08T04:55:49;102436.59;;;5.82;100.00
24788;BME280;12883;52.662;5.196;2023-04-08T04:58:15;102489.91;;;6.16;100.00
24788;BME280;12883;52.662;5.196;2023-04-08T05:00:40;102506.09;;;6.11;100.00
24788;BME280;12883;52.662;5.196;2023-04-08T05:03:06;102505.22;;;6.01;100.00
24788;BME280;12883;52.662;5.196;2023-04-08T05:05:31;102512.41;;;5.99;100.00
24788;BME280;12883;52.662;5.196;2023-04-08T05:07:56;102517.47;;;5.91;100.00
24788;BME280;12883;52.662;5.196;2023-04-08T05:10:21;102521.31;;;5.87;100.00
24788;BME280;12883;52.662;5.196;2023-04-08T05:12:47;102523.81;;;5.89;100.00
24788;BME280;12883;52.662;5.196;2023-04-08T05:15:12;102524.91;;;5.86;100.00
24788;BME280;12883;52.662;5.196;2023-04-08T05:17:38;102527.03;;;5.92;100.00
24788;BME280;12883;52.662;5.196;2023-04-08T05:20:03;102478.81;;;5.60;100.00
24788;BME280;12883;52.662;5.196;2023-04-08T05:22:29;102525.50;;;5.90;100.00
24788;BME280;12883;52.662;5.196;2023-04-08T05:24:54;102520.81;;;5.93;100.00
24788;BME280;12883;52.662;5.196;2023-04-08T05:27:20;102529.59;;;5.83;100.00
24788;BME280;12883;52.662;5.196;2023-04-08T05:29:46;102521.06;;;5.90;100.00
24788;BME280;12883;52.662;5.196;2023-04-08T05:32:11;102520.03;;;5.82;100.00
24788;BME280;12883;52.662;5.196;2023-04-08T05:34:36;102531.91;;;5.97;100.00
24788;BME280;12883;52.662;5.196;2023-04-08T05:37:02;102534.72;;;5.95;100.00
24788;BME280;12883;52.662;5.196;2023-04-08T05:39:27;102521.16;;;6.00;100.00
24788;BME280;12883;52.662;5.196;2023-04-08T05:41:52;102539.91;;;6.06;100.00
24788;BME280;12883;52.662;5.196;2023-04-08T05:44:18;102531.59;;;6.11;100.00
24788;BME280;12883;52.662;5.196;2023-04-08T05:46:43;102524.25;;;6.05;100.00
24788;BME280;12883;52.662;5.196;2023-04-08T05:49:08;102531.25;;;6.15;100.00
24788;BME280;12883;52.662;5.196;2023-04-08T05:51:34;102533.34;;;6.21;100.00
24788;BME280;12883;52.662;5.196;2023-04-08T05:53:59;102518.06;;;6.15;100.00
24788;BME280;12883;52.662;5.196;2023-04-08T05:56:25;102541.72;;;6.26;100.00
24788;BME280;12883;52.662;5.196;2023-04-08T05:58:50;102539.53;;;6.31;100.00
24788;BME280;12883;52.662;5.196;2023-04-08T06:01:15;102540.50;;;6.30;100.00
24788;BME280;12883;52.662;5.196;2023-04-08T06:03:41;102534.72;;;6.36;100.00
24788;BME280;12883;52.662;5.196;2023-04-08T06:06:09;102528.81;;;6.23;100.00
24788;BME280;12883;52.662;5.196;2023-04-08T06:08:38;102506.06;;;6.22;100.00
24788;BME280;12883;52.662;5.196;2023-04-08T06:11:03;102546.13;;;6.46;100.00
24788;BME280;12883;52.662;5.196;2023-04-08T06:13:29;102548.91;;;6.45;100.00
24788;BME280;12883;52.662;5.196;2023-04-08T06:15:55;102558.28;;;6.58;100.00
24788;BME280;12883;52.662;5.196;2023-04-08T06:18:20;102555.38;;;6.61;100.00
24788;BME280;12883;52.662;5.196;2023-04-08T06:20:46;102553.72;;;6.60;100.00
24788;BME280;12883;52.662;5.196;2023-04-08T06:23:11;102536.38;;;6.37;100.00
24788;BME280;12883;52.662;5.196;2023-04-08T06:25:37;102561.09;;;6.66;100.00
24788;BME280;12883;52.662;5.196;2023-04-08T06:28:02;102566.38;;;6.66;100.00
24788;BME280;12883;52.662;5.196;2023-04-08T06:30:27;102569.31;;;6.73;100.00
24788;BME280;12883;52.662;5.196;2023-04-08T06:32:53;102566.28;;;6.77;100.00
24788;BME280;12883;52.662;5.196;2023-04-08T06:35:18;102579.41;;;6.88;100.00
24788;BME280;12883;52.662;5.196;2023-04-08T06:37:43;102572.16;;;6.90;100.00
24788;BME280;12883;52.662;5.196;2023-04-08T06:40:09;102571.94;;;6.93;100.00
24788;BME280;12883;52.662;5.196;2023-04-08T06:42:35;102575.81;;;6.99;100.00
24788;BME280;12883;52.662;5.196;2023-04-08T06:45:03;102571.41;;;6.99;100.00
24788;BME280;12883;52.662;5.196;2023-04-08T06:47:28;102585.16;;;7.03;100.00
24788;BME280;12883;52.662;5.196;2023-04-08T06:49:53;102592.28;;;7.12;100.00
24788;BME280;12883;52.662;5.196;2023-04-08T06:52:19;102584.63;;;7.18;100.00
24788;BME280;12883;52.662;5.196;2023-04-08T06:54:44;102589.22;;;7.16;100.00
24788;BME280;12883;52.662;5.196;2023-04-08T06:57:10;102593.00;;;7.23;100.00
24788;BME280;12883;52.662;5.196;2023-04-08T06:59:35;102604.81;;;7.19;100.00
24788;BME280;12883;52.662;5.196;2023-04-08T07:02:01;102605.13;;;7.35;100.00
24788;BME280;12883;52.662;5.196;2023-04-08T07:04:26;102618.88;;;7.29;100.00
24788;BME280;12883;52.662;5.196;2023-04-08T07:06:52;102609.44;;;7.36;100.00
24788;BME280;12883;52.662;5.196;2023-04-08T07:09:17;102617.53;;;7.44;100.00
24788;BME280;12883;52.662;5.196;2023-04-08T07:11:43;102588.59;;;7.33;100.00
24788;BME280;12883;52.662;5.196;2023-04-08T07:14:08;102619.34;;;7.53;100.00
24788;BME280;12883;52.662;5.196;2023-04-08T07:16:33;102617.84;;;7.60;100.00
24788;BME280;12883;52.662;5.196;2023-04-08T07:18:59;102622.44;;;7.58;100.00
24788;BME280;12883;52.662;5.196;2023-04-08T07:21:24;102601.03;;;7.61;100.00
24788;BME280;12883;52.662;5.196;2023-04-08T07:23:50;102624.84;;;7.80;100.00
24788;BME280;12883;52.662;5.196;2023-04-08T07:26:15;102624.69;;;7.72;100.00
24788;BME280;12883;52.662;5.196;2023-04-08T07:28:41;102634.16;;;7.84;100.00
24788;BME280;12883;52.662;5.196;2023-04-08T07:31:16;102639.47;;;7.84;100.00
24788;BME280;12883;52.662;5.196;2023-04-08T07:33:43;102639.34;;;7.95;100.00
24788;BME280;12883;52.662;5.196;2023-04-08T07:36:09;102598.13;;;7.64;100.00
24788;BME280;12883;52.662;5.196;2023-04-08T07:38:36;102647.00;;;7.98;100.00
24788;BME280;12883;52.662;5.196;2023-04-08T07:41:01;102653.97;;;8.09;100.00
24788;BME280;12883;52.662;5.196;2023-04-08T07:43:27;102655.38;;;8.13;100.00
24788;BME280;12883;52.662;5.196;2023-04-08T07:45:52;102668.03;;;8.28;100.00
24788;BME280;12883;52.662;5.196;2023-04-08T07:48:17;102659.56;;;8.34;100.00
24788;BME280;12883;52.662;5.196;2023-04-08T07:50:43;102664.97;;;8.42;100.00
24788;BME280;12883;52.662;5.196;2023-04-08T07:53:10;102664.28;;;8.40;100.00
24788;BME280;12883;52.662;5.196;2023-04-08T07:55:35;102674.44;;;8.35;100.00
24788;BME280;12883;52.662;5.196;2023-04-08T07:58:01;102648.84;;;8.26;100.00
24788;BME280;12883;52.662;5.196;2023-04-08T08:00:26;102674.88;;;8.40;100.00
24788;BME280;12883;52.662;5.196;2023-04-08T08:02:54;102680.84;;;8.42;100.00
24788;BME280;12883;52.662;5.196;2023-04-08T08:05:20;102667.63;;;8.33;100.00
24788;BME280;12883;52.662;5.196;2023-04-08T08:07:45;102676.00;;;8.47;100.00
24788;BME280;12883;52.662;5.196;2023-04-08T08:10:11;102685.03;;;8.45;100.00
24788;BME280;12883;52.662;5.196;2023-04-08T08:12:36;102665.09;;;8.60;100.00
24788;BME280;12883;52.662;5.196;2023-04-08T08:15:02;102676.69;;;8.49;100.00
24788;BME280;12883;52.662;5.196;2023-04-08T08:17:27;102665.66;;;8.63;100.00
24788;BME280;12883;52.662;5.196;2023-04-08T08:19:55;102673.75;;;8.62;100.00
24788;BME280;12883;52.662;5.196;2023-04-08T08:22:21;102685.47;;;8.59;100.00
24788;BME280;12883;52.662;5.196;2023-04-08T08:24:46;102674.59;;;8.62;100.00
24788;BME280;12883;52.662;5.196;2023-04-08T08:27:11;102669.59;;;8.59;100.00
24788;BME280;12883;52.662;5.196;2023-04-08T08:29:37;102680.16;;;8.69;100.00
24788;BME280;12883;52.662;5.196;2023-04-08T08:32:03;102683.50;;;8.71;100.00
24788;BME280;12883;52.662;5.196;2023-04-08T08:34:28;102682.81;;;8.78;100.00
24788;BME280;12883;52.662;5.196;2023-04-08T08:36:54;102678.63;;;8.85;100.00
24788;BME280;12883;52.662;5.196;2023-04-08T08:39:20;102685.13;;;8.91;100.00
24788;BME280;12883;52.662;5.196;2023-04-08T08:41:45;102680.09;;;8.97;100.00
24788;BME280;12883;52.662;5.196;2023-04-08T08:44:11;102685.13;;;9.00;100.00
24788;BME280;12883;52.662;5.196;2023-04-08T08:46:42;102687.78;;;9.00;100.00
24788;BME280;12883;52.662;5.196;2023-04-08T08:49:08;102693.75;;;9.02;100.00
24788;BME280;12883;52.662;5.196;2023-04-08T08:51:34;102688.69;;;9.18;100.00
24788;BME280;12883;52.662;5.196;2023-04-08T08:54:03;102684.78;;;9.22;100.00
24788;BME280;12883;52.662;5.196;2023-04-08T08:56:28;102687.59;;;9.48;100.00
24788;BME280;12883;52.662;5.196;2023-04-08T08:58:54;102688.06;;;9.34;100.00
24788;BME280;12883;52.662;5.196;2023-04-08T09:01:48;102695.31;;;9.41;100.00
24788;BME280;12883;52.662;5.196;2023-04-08T09:04:15;102684.41;;;9.44;100.00
24788;BME280;12883;52.662;5.196;2023-04-08T09:06:43;102702.06;;;9.53;100.00
24788;BME280;12883;52.662;5.196;2023-04-08T09:09:09;102666.31;;;9.40;100.00
24788;BME280;12883;52.662;5.196;2023-04-08T09:11:36;102693.75;;;9.48;100.00
24788;BME280;12883;52.662;5.196;2023-04-08T09:14:03;102710.38;;;9.67;100.00
24788;BME280;12883;52.662;5.196;2023-04-08T09:16:29;102714.34;;;9.81;100.00
24788;BME280;12883;52.662;5.196;2023-04-08T09:19:07;102721.94;;;9.76;100.00
24788;BME280;12883;52.662;5.196;2023-04-08T09:21:33;102710.44;;;9.85;100.00
24788;BME280;12883;52.662;5.196;2023-04-08T09:23:59;102711.69;;;9.81;100.00
24788;BME280;12883;52.662;5.196;2023-04-08T09:26:25;102716.31;;;9.79;100.00
24788;BME280;12883;52.662;5.196;2023-04-08T09:29:05;102720.72;;;9.88;100.00
24788;BME280;12883;52.662;5.196;2023-04-08T09:31:38;102726.34;;;9.85;100.00
24788;BME280;12883;52.662;5.196;2023-04-08T09:34:11;102688.06;;;9.70;100.00
24788;BME280;12883;52.662;5.196;2023-04-08T09:36:37;102715.25;;;9.99;100.00
24788;BME280;12883;52.662;5.196;2023-04-08T09:39:04;102668.16;;;9.56;100.00
24788;BME280;12883;52.662;5.196;2023-04-08T09:41:33;102724.38;;;9.87;100.00
24788;BME280;12883;52.662;5.196;2023-04-08T09:43:59;102725.44;;;9.94;100.00
24788;BME280;12883;52.662;5.196;2023-04-08T09:46:39;102722.03;;;9.84;100.00
24788;BME280;12883;52.662;5.196;2023-04-08T09:49:10;102737.56;;;9.96;100.00
24788;BME280;12883;52.662;5.196;2023-04-08T09:51:44;102696.19;;;9.86;100.00
24788;BME280;12883;52.662;5.196;2023-04-08T09:54:14;102732.06;;;10.17;100.00
24788;BME280;12883;52.662;5.196;2023-04-08T09:56:48;102722.88;;;10.02;100.00
24788;BME280;12883;52.662;5.196;2023-04-08T09:59:16;102723.72;;;10.12;100.00
24788;BME280;12883;52.662;5.196;2023-04-08T10:01:50;102726.75;;;10.17;100.00
24788;BME280;12883;52.662;5.196;2023-04-08T10:04:19;102732.81;;;10.27;100.00
24788;BME280;12883;52.662;5.196;2023-04-08T10:06:51;102734.94;;;10.41;100.00
24788;BME280;12883;52.662;5.196;2023-04-08T10:09:20;102737.84;;;10.30;100.00
24788;BME280;12883;52.662;5.196;2023-04-08T10:11:46;102733.34;;;10.30;100.00
24788;BME280;12883;52.662;5.196;2023-04-08T10:14:12;102713.84;;;10.22;100.00
24788;BME280;12883;52.662;5.196;2023-04-08T10:16:37;102705.28;;;10.10;100.00
24788;BME280;12883;52.662;5.196;2023-04-08T10:19:35;102711.06;;;10.41;100.00
24788;BME280;12883;52.662;5.196;2023-04-08T10:27:42;102725.41;;;10.48;100.00
24788;BME280;12883;52.662;5.196;2023-04-08T10:32:53;102711.31;;;10.65;100.00
24788;BME280;12883;52.662;5.196;2023-04-08T10:35:36;102681.41;;;10.28;100.00
24788;BME280;12883;52.662;5.196;2023-04-08T10:38:02;102677.78;;;10.46;100.00
24788;BME280;12883;52.662;5.196;2023-04-08T10:40:28;102700.81;;;10.81;100.00
24788;BME280;12883;52.662;5.196;2023-04-08T10:43:01;102697.25;;;10.72;100.00
24788;BME280;12883;52.662;5.196;2023-04-08T10:45:27;102695.22;;;10.92;100.00
24788;BME280;12883;52.662;5.196;2023-04-08T10:47:52;102690.63;;;10.94;100.00
24788;BME280;12883;52.662;5.196;2023-04-08T10:50:19;102701.09;;;10.78;100.00
24788;BME280;12883;52.662;5.196;2023-04-08T10:52:48;102682.38;;;11.05;100.00
24788;BME280;12883;52.662;5.196;2023-04-08T10:55:15;102693.75;;;11.15;100.00
24788;BME280;12883;52.662;5.196;2023-04-08T10:57:41;102694.47;;;11.25;100.00
24788;BME280;12883;52.662;5.196;2023-04-08T11:00:17;102697.88;;;11.09;100.00
24788;BME280;12883;52.662;5.196;2023-04-08T11:02:42;102698.06;;;11.49;100.00
24788;BME280;12883;52.662;5.196;2023-04-08T11:05:09;102707.59;;;11.26;100.00
24788;BME280;12883;52.662;5.196;2023-04-08T11:07:40;102711.41;;;11.24;100.00
24788;BME280;12883;52.662;5.196;2023-04-08T11:10:07;102719.31;;;11.16;100.00
24788;BME280;12883;52.662;5.196;2023-04-08T11:12:33;102716.09;;;11.30;100.00
24788;BME280;12883;52.662;5.196;2023-04-08T11:15:00;102699.78;;;11.25;100.00
24788;BME280;12883;52.662;5.196;2023-04-08T11:17:26;102713.53;;;11.20;100.00
24788;BME280;12883;52.662;5.196;2023-04-08T11:19:51;102705.81;;;11.35;100.00
24788;BME280;12883;52.662;5.196;2023-04-08T11:22:17;102728.75;;;11.36;100.00
24788;BME280;12883;52.662;5.196;2023-04-08T11:24:42;102731.94;;;11.39;100.00
24788;BME280;12883;52.662;5.196;2023-04-08T11:27:08;102733.25;;;11.43;100.00
24788;BME280;12883;52.662;5.196;2023-04-08T11:29:33;102731.88;;;11.31;100.00
24788;BME280;12883;52.662;5.196;2023-04-08T11:31:59;102734.16;;;11.26;100.00
24788;BME280;12883;52.662;5.196;2023-04-08T11:34:25;102731.84;;;11.23;100.00
24788;BME280;12883;52.662;5.196;2023-04-08T11:36:51;102709.09;;;11.29;100.00
24788;BME280;12883;52.662;5.196;2023-04-08T11:39:16;102729.47;;;11.46;100.00
24788;BME280;12883;52.662;5.196;2023-04-08T11:41:41;102719.13;;;11.35;100.00
24788;BME280;12883;52.662;5.196;2023-04-08T11:44:07;102697.88;;;11.09;100.00
24788;BME280;12883;52.662;5.196;2023-04-08T11:46:33;102719.41;;;11.32;100.00
24788;BME280;12883;52.662;5.196;2023-04-08T11:49:04;102726.31;;;11.50;100.00
24788;BME280;12883;52.662;5.196;2023-04-08T11:51:31;102715.25;;;11.55;100.00
24788;BME280;12883;52.662;5.196;2023-04-08T11:53:58;102721.00;;;11.50;100.00
24788;BME280;12883;52.662;5.196;2023-04-08T11:56:24;102728.94;;;11.68;100.00
24788;BME280;12883;52.662;5.196;2023-04-08T11:58:50;102725.94;;;11.37;100.00
24788;BME280;12883;52.662;5.196;2023-04-08T12:01:17;102681.03;;;11.26;100.00
24788;BME280;12883;52.662;5.196;2023-04-08T12:03:59;102712.53;;;11.72;100.00
24788;BME280;12883;52.662;5.196;2023-04-08T12:06:25;102709.56;;;11.83;100.00
24788;BME280;12883;52.662;5.196;2023-04-08T12:08:52;102707.13;;;11.98;100.00
24788;BME280;12883;52.662;5.196;2023-04-08T12:11:18;102708.13;;;11.97;100.00
24788;BME280;12883;52.662;5.196;2023-04-08T12:13:43;102715.78;;;12.08;100.00
24788;BME280;12883;52.662;5.196;2023-04-08T12:16:09;102676.13;;;11.81;100.00
24788;BME280;12883;52.662;5.196;2023-04-08T12:18:34;102711.66;;;12.13;100.00
24788;BME280;12883;52.662;5.196;2023-04-08T12:21:00;102715.16;;;12.30;100.00
24788;BME280;12883;52.662;5.196;2023-04-08T12:23:26;102718.50;;;12.24;100.00
24788;BME280;12883;52.662;5.196;2023-04-08T12:25:51;102707.03;;;12.47;100.00
24788;BME280;12883;52.662;5.196;2023-04-08T12:28:16;102718.88;;;12.45;100.00
24788;BME280;12883;52.662;5.196;2023-04-08T12:30:42;102712.72;;;12.44;100.00
24788;BME280;12883;52.662;5.196;2023-04-08T12:33:07;102725.53;;;12.49;100.00
24788;BME280;12883;52.662;5.196;2023-04-08T12:35:32;102718.19;;;12.43;100.00
24788;BME280;12883;52.662;5.196;2023-04-08T12:37:58;102714.56;;;12.68;100.00
24788;BME280;12883;52.662;5.196;2023-04-08T12:40:23;102719.22;;;12.82;100.00
24788;BME280;12883;52.662;5.196;2023-04-08T12:42:48;102723.03;;;12.87;100.00
24788;BME280;12883;52.662;5.196;2023-04-08T12:45:14;102726.03;;;12.68;100.00
24788;BME280;12883;52.662;5.196;2023-04-08T12:47:39;102717.91;;;13.02;100.00
24788;BME280;12883;52.662;5.196;2023-04-08T12:50:05;102723.88;;;13.12;100.00
24788;BME280;12883;52.662;5.196;2023-04-08T12:52:30;102714.88;;;13.13;100.00
24788;BME280;12883;52.662;5.196;2023-04-08T12:54:57;102712.56;;;12.94;100.00
24788;BME280;12883;52.662;5.196;2023-04-08T12:57:22;102718.22;;;12.99;100.00
24788;BME280;12883;52.662;5.196;2023-04-08T12:59:47;102716.72;;;13.20;100.00